Venice Marco Polo Airport

LIPZ · 威尼托, 意大利

罗盘
风向 的 风向 050° Venice Marco Polo Airport 4R/22L
风: 13 kt, 4 beaufort

13 kt

2 kt
改变
0 ft 1.000 2.000 3.000 4.000 5.000
Cloud Cloud Cloud Cloud Cloud Cloud
BKN 3.000
Cloud Cloud Cloud Cloud Cloud Cloud
BKN 5.000
METAR LIPZ 270050Z 05013KT 9999 -RA BKN030 BKN050 09/07 Q1007 NOSIG

METAR Venice Marco Polo Airport - LIPZ/VCE

Venice Marco Polo Airport是,意大利中的大型机场。 该机场位于纬度45,50524和经度12,35027。 该机场有2条跑道: 4R/22L 和 4L/22R. 本场的ICAO机场代码为LIPZ。 该机场的IATA代码为VCE。 机场在Milano FIR中。

该航空气象观测是针对Venice Marco Polo Airport在2024年2月27日 01:50, 当地时间进行的。

机场观察

风向为050°,速度为13 kt。

可见度为10 km 或者更多。

有碎云在3.000 ft的高度 和 碎云在5.000 ft的高度。 破损或更高的上限为3.000 ft。

当前天气为光 雨。 温度为9 °C,阵风为4 °C。 露点为7 °C,相对湿度为87%。 海平面上的气压为1007 hPa (QNH)。

白天

今天,太阳从06:53升起,在17:53降落。 这适用于Venice Marco Polo Airport,世界夏令时可能有所不同。 当地时间与世界标准时间之间的时差为+1 小时。 当前,没有夏令时有效。

公司介绍

我们没有关于这个机场的公司信息。

体会

到Vliegles.nl去找飞行课程,跳伞和其他飞行体验。 浏览页面,了解Venice Marco Polo Airport附近所有可用的活动。 你也可以使用搜索功能来寻找你所在地附近的特定飞行课程、跳伞或其他飞行体验。

跑道

Id 标题 侧风 逆风 侧风 %
4R/22L 042°-222° 2 kt 13 kt 14 %
4L/22R 042°-222° 2 kt 13 kt 14 %

逆风成分最大的方向会被突出显示,并用于横风计算。 这并不一定意味着这个方向在使用。

乌云

3.000 ft BKN 碎云
5.000 ft BKN 碎云

温度 & 天气

天气 光 雨
温度 9 °C
露点 7 °C
相对湿度 87%
风寒 4 °C
Kp-index 3 (0-9)

白天

日出
06:53 (4:37)
中午
12:23
日落
17:53

小工具

你想在你的网站上有一个关于Venice Marco Polo Airport的当前航空天气(METAR)的小部件吗?

显示HTML代码
?>